sensor_id;sensor_type;location;lat;lon;timestamp;pressure;altitude;pressure_sealevel;temperature
19568;BMP280;9930;49.240;8.548;2022-08-03T00:01:16;100466.38;;;26.78
19568;BMP280;9930;49.240;8.548;2022-08-03T00:03:42;100469.81;;;26.81
19568;BMP280;9930;49.240;8.548;2022-08-03T00:06:12;100462.13;;;26.74
19568;BMP280;9930;49.240;8.548;2022-08-03T00:08:41;100471.75;;;26.74
19568;BMP280;9930;49.240;8.548;2022-08-03T00:11:09;100475.28;;;26.73
19568;BMP280;9930;49.240;8.548;2022-08-03T00:13:42;100473.63;;;26.69
19568;BMP280;9930;49.240;8.548;2022-08-03T00:16:12;100477.06;;;26.71
19568;BMP280;9930;49.240;8.548;2022-08-03T00:18:42;100478.88;;;26.69
19568;BMP280;9930;49.240;8.548;2022-08-03T00:21:11;100469.50;;;26.60
19568;BMP280;9930;49.240;8.548;2022-08-03T00:23:41;100473.84;;;26.61
19568;BMP280;9930;49.240;8.548;2022-08-03T00:26:10;100473.84;;;26.61
19568;BMP280;9930;49.240;8.548;2022-08-03T00:28:40;100475.59;;;26.61
19568;BMP280;9930;49.240;8.548;2022-08-03T00:31:10;100465.31;;;26.55
19568;BMP280;9930;49.240;8.548;2022-08-03T00:33:40;100469.66;;;26.56
19568;BMP280;9930;49.240;8.548;2022-08-03T00:36:10;100468.81;;;26.54
19568;BMP280;9930;49.240;8.548;2022-08-03T00:38:38;100469.78;;;26.51
19568;BMP280;9930;49.240;8.548;2022-08-03T00:41:04;100470.72;;;26.49
19568;BMP280;9930;49.240;8.548;2022-08-03T00:43:30;100458.69;;;26.41
19568;BMP280;9930;49.240;8.548;2022-08-03T00:45:56;100457.03;;;26.39
19568;BMP280;9930;49.240;8.548;2022-08-03T00:48:24;100459.72;;;26.36
19568;BMP280;9930;49.240;8.548;2022-08-03T00:50:50;100454.53;;;26.34
19568;BMP280;9930;49.240;8.548;2022-08-03T00:53:21;100459.78;;;26.33
19568;BMP280;9930;49.240;8.548;2022-08-03T00:55:49;100452.91;;;26.29
19568;BMP280;9930;49.240;8.548;2022-08-03T00:58:20;100465.88;;;26.33
19568;BMP280;9930;49.240;8.548;2022-08-03T01:00:46;100456.41;;;26.28
19568;BMP280;9930;49.240;8.548;2022-08-03T01:03:15;100458.16;;;26.27
19568;BMP280;9930;49.240;8.548;2022-08-03T01:06:18;100463.59;;;26.20
19568;BMP280;9930;49.240;8.548;2022-08-03T01:12:07;100449.03;;;26.09
19568;BMP280;9930;49.240;8.548;2022-08-03T01:17:35;100454.31;;;26.08
19568;BMP280;9930;49.240;8.548;2022-08-03T01:20:08;100459.56;;;26.06
19568;BMP280;9930;49.240;8.548;2022-08-03T01:26:12;100457.22;;;25.97
19568;BMP280;9930;49.240;8.548;2022-08-03T01:29:17;100446.00;;;25.94
19568;BMP280;9930;49.240;8.548;2022-08-03T01:31:56;100434.09;;;25.82
19568;BMP280;9930;49.240;8.548;2022-08-03T01:34:28;100434.88;;;25.86
19568;BMP280;9930;49.240;8.548;2022-08-03T01:37:01;100435.00;;;25.81
19568;BMP280;9930;49.240;8.548;2022-08-03T01:39:30;100430.66;;;25.80
19568;BMP280;9930;49.240;8.548;2022-08-03T01:42:05;100433.22;;;25.81
19568;BMP280;9930;49.240;8.548;2022-08-03T01:44:41;100428.09;;;25.78
19568;BMP280;9930;49.240;8.548;2022-08-03T01:47:15;100433.19;;;25.83
19568;BMP280;9930;49.240;8.548;2022-08-03T01:49:45;100439.34;;;25.80
19568;BMP280;9930;49.240;8.548;2022-08-03T01:52:17;100420.47;;;25.69
19568;BMP280;9930;49.240;8.548;2022-08-03T01:54:50;100435.06;;;25.78
19568;BMP280;9930;49.240;8.548;2022-08-03T01:57:18;100423.03;;;25.71
19568;BMP280;9930;49.240;8.548;2022-08-03T01:59:47;100430.03;;;25.70
19568;BMP280;9930;49.240;8.548;2022-08-03T02:02:15;100425.69;;;25.69
19568;BMP280;9930;49.240;8.548;2022-08-03T02:04:46;100429.19;;;25.68
19568;BMP280;9930;49.240;8.548;2022-08-03T02:07:16;100427.56;;;25.63
19568;BMP280;9930;49.240;8.548;2022-08-03T02:09:46;100437.03;;;25.68
19568;BMP280;9930;49.240;8.548;2022-08-03T02:12:13;100431.97;;;25.61
19568;BMP280;9930;49.240;8.548;2022-08-03T02:14:47;100425.03;;;25.60
19568;BMP280;9930;49.240;8.548;2022-08-03T02:17:15;100435.41;;;25.63
19568;BMP280;9930;49.240;8.548;2022-08-03T02:19:43;100444.09;;;25.63
19568;BMP280;9930;49.240;8.548;2022-08-03T02:22:12;100435.50;;;25.58
19568;BMP280;9930;49.240;8.548;2022-08-03T02:24:42;100432.19;;;25.52
19568;BMP280;9930;49.240;8.548;2022-08-03T02:27:21;100429.59;;;25.50
19568;BMP280;9930;49.240;8.548;2022-08-03T02:29:52;100425.31;;;25.47
19568;BMP280;9930;49.240;8.548;2022-08-03T02:32:27;100427.97;;;25.46
19568;BMP280;9930;49.240;8.548;2022-08-03T02:34:59;100429.63;;;25.48
19568;BMP280;9930;49.240;8.548;2022-08-03T02:37:33;100427.19;;;25.42
19568;BMP280;9930;49.240;8.548;2022-08-03T02:40:03;100425.47;;;25.41
19568;BMP280;9930;49.240;8.548;2022-08-03T02:42:34;100432.31;;;25.45
19568;BMP280;9930;49.240;8.548;2022-08-03T02:45:05;100418.56;;;25.39
19568;BMP280;9930;49.240;8.548;2022-08-03T02:47:36;100428.94;;;25.42
19568;BMP280;9930;49.240;8.548;2022-08-03T02:50:07;100429.78;;;25.42
19568;BMP280;9930;49.240;8.548;2022-08-03T02:52:36;100416.91;;;25.35
19568;BMP280;9930;49.240;8.548;2022-08-03T02:55:07;100405.72;;;25.30
19568;BMP280;9930;49.240;8.548;2022-08-03T02:57:43;100429.88;;;25.38
19568;BMP280;9930;49.240;8.548;2022-08-03T03:00:13;100418.72;;;25.31
19568;BMP280;9930;49.240;8.548;2022-08-03T03:02:42;100417.09;;;25.27
19568;BMP280;9930;49.240;8.548;2022-08-03T03:05:13;100423.13;;;25.29
19568;BMP280;9930;49.240;8.548;2022-08-03T03:07:46;100416.28;;;25.24
19568;BMP280;9930;49.240;8.548;2022-08-03T03:10:12;100432.72;;;25.29
19568;BMP280;9930;49.240;8.548;2022-08-03T03:12:43;100435.34;;;25.27
19568;BMP280;9930;49.240;8.548;2022-08-03T03:15:13;100417.28;;;25.18
19568;BMP280;9930;49.240;8.548;2022-08-03T03:17:43;100437.22;;;25.22
19568;BMP280;9930;49.240;8.548;2022-08-03T03:20:14;100430.31;;;25.20
19568;BMP280;9930;49.240;8.548;2022-08-03T03:22:46;100429.47;;;25.17
19568;BMP280;9930;49.240;8.548;2022-08-03T03:25:12;100414.97;;;25.04
19568;BMP280;9930;49.240;8.548;2022-08-03T03:27:42;100425.31;;;25.09
19568;BMP280;9930;49.240;8.548;2022-08-03T03:30:12;100427.91;;;25.10
19568;BMP280;9930;49.240;8.548;2022-08-03T03:32:42;100422.84;;;25.03
19568;BMP280;9930;49.240;8.548;2022-08-03T03:35:12;100430.63;;;25.04
19568;BMP280;9930;49.240;8.548;2022-08-03T03:37:42;100425.47;;;25.01
19568;BMP280;9930;49.240;8.548;2022-08-03T03:40:14;100431.63;;;24.99
19568;BMP280;9930;49.240;8.548;2022-08-03T03:42:42;100421.34;;;24.90
19568;BMP280;9930;49.240;8.548;2022-08-03T03:45:12;100427.47;;;24.89
19568;BMP280;9930;49.240;8.548;2022-08-03T03:47:39;100420.66;;;24.81
19568;BMP280;9930;49.240;8.548;2022-08-03T03:50:11;100421.59;;;24.77
19568;BMP280;9930;49.240;8.548;2022-08-03T03:52:44;100428.53;;;24.78
19568;BMP280;9930;49.240;8.548;2022-08-03T03:55:16;100420.03;;;24.69
19568;BMP280;9930;49.240;8.548;2022-08-03T03:57:42;100431.34;;;24.69
19568;BMP280;9930;49.240;8.548;2022-08-03T04:00:13;100433.09;;;24.69
19568;BMP280;9930;49.240;8.548;2022-08-03T04:02:43;100426.16;;;24.68
19568;BMP280;9930;49.240;8.548;2022-08-03T04:05:12;100431.41;;;24.66
19568;BMP280;9930;49.240;8.548;2022-08-03T04:08:08;100431.44;;;24.65
19568;BMP280;9930;49.240;8.548;2022-08-03T04:11:20;100435.84;;;24.61
19568;BMP280;9930;49.240;8.548;2022-08-03T04:14:01;100430.69;;;24.58
19568;BMP280;9930;49.240;8.548;2022-08-03T04:16:34;100414.31;;;24.51
19568;BMP280;9930;49.240;8.548;2022-08-03T04:19:23;100427.25;;;24.56
19568;BMP280;9930;49.240;8.548;2022-08-03T04:21:58;100427.25;;;24.56
19568;BMP280;9930;49.240;8.548;2022-08-03T04:24:48;100425.66;;;24.49
19568;BMP280;9930;49.240;8.548;2022-08-03T04:27:22;100426.44;;;24.52
19568;BMP280;9930;49.240;8.548;2022-08-03T04:29:55;100417.03;;;24.45
19568;BMP280;9930;49.240;8.548;2022-08-03T04:32:23;100421.28;;;24.51
19568;BMP280;9930;49.240;8.548;2022-08-03T04:34:53;100437.69;;;24.56
19568;BMP280;9930;49.240;8.548;2022-08-03T04:37:51;100436.81;;;24.56
19568;BMP280;9930;49.240;8.548;2022-08-03T04:40:30;100442.84;;;24.59
19568;BMP280;9930;49.240;8.548;2022-08-03T04:42:58;100435.84;;;24.61
19568;BMP280;9930;49.240;8.548;2022-08-03T04:45:30;100438.44;;;24.63
19568;BMP280;9930;49.240;8.548;2022-08-03T04:47:57;100434.97;;;24.62
19568;BMP280;9930;49.240;8.548;2022-08-03T04:50:26;100434.97;;;24.62
19568;BMP280;9930;49.240;8.548;2022-08-03T04:52:53;100435.78;;;24.64
19568;BMP280;9930;49.240;8.548;2022-08-03T04:55:29;100447.78;;;24.73
19568;BMP280;9930;49.240;8.548;2022-08-03T04:57:56;100441.66;;;24.75
19568;BMP280;9930;49.240;8.548;2022-08-03T05:00:23;100447.66;;;24.79
19568;BMP280;9930;49.240;8.548;2022-08-03T05:02:51;100436.38;;;24.78
19568;BMP280;9930;49.240;8.548;2022-08-03T05:05:18;100436.31;;;24.81
19568;BMP280;9930;49.240;8.548;2022-08-03T05:07:47;100442.19;;;24.91
19568;BMP280;9930;49.240;8.548;2022-08-03T05:10:15;100446.47;;;24.95
19568;BMP280;9930;49.240;8.548;2022-08-03T05:12:44;100449.91;;;24.99
19568;BMP280;9930;49.240;8.548;2022-08-03T05:15:13;100452.41;;;25.03
19568;BMP280;9930;49.240;8.548;2022-08-03T05:17:42;100453.19;;;25.07
19568;BMP280;9930;49.240;8.548;2022-08-03T05:20:12;100462.69;;;25.11
19568;BMP280;9930;49.240;8.548;2022-08-03T05:22:40;100461.72;;;25.15
19568;BMP280;9930;49.240;8.548;2022-08-03T05:25:09;100457.34;;;25.17
19568;BMP280;9930;49.240;8.548;2022-08-03T05:27:37;100472.94;;;25.20
19568;BMP280;9930;49.240;8.548;2022-08-03T05:30:06;100469.34;;;25.26
19568;BMP280;9930;49.240;8.548;2022-08-03T05:32:31;100476.19;;;25.30
19568;BMP280;9930;49.240;8.548;2022-08-03T05:35:00;100464.91;;;25.29
19568;BMP280;9930;49.240;8.548;2022-08-03T05:37:27;100463.91;;;25.35
19568;BMP280;9930;49.240;8.548;2022-08-03T05:39:53;100481.94;;;25.45
19568;BMP280;9930;49.240;8.548;2022-08-03T05:42:21;100466.25;;;25.47
19568;BMP280;9930;49.240;8.548;2022-08-03T05:44:47;100479.72;;;25.67
19568;BMP280;9930;49.240;8.548;2022-08-03T05:47:15;100479.84;;;25.98
19568;BMP280;9930;49.240;8.548;2022-08-03T05:49:47;100474.34;;;26.43
19568;BMP280;9930;49.240;8.548;2022-08-03T05:52:15;100476.28;;;27.00
19568;BMP280;9930;49.240;8.548;2022-08-03T05:54:48;100474.81;;;27.49
19568;BMP280;9930;49.240;8.548;2022-08-03T05:57:13;100474.88;;;28.01
19568;BMP280;9930;49.240;8.548;2022-08-03T05:59:45;100475.97;;;28.47
19568;BMP280;9930;49.240;8.548;2022-08-03T06:02:13;100472.63;;;28.92
19568;BMP280;9930;49.240;8.548;2022-08-03T06:04:42;100478.94;;;29.33
19568;BMP280;9930;49.240;8.548;2022-08-03T06:07:08;100476.22;;;29.58
19568;BMP280;9930;49.240;8.548;2022-08-03T06:09:37;100476.63;;;29.91
19568;BMP280;9930;49.240;8.548;2022-08-03T06:12:05;100477.09;;;30.22
19568;BMP280;9930;49.240;8.548;2022-08-03T06:14:35;100473.31;;;30.48
19568;BMP280;9930;49.240;8.548;2022-08-03T06:17:01;100476.53;;;30.75
19568;BMP280;9930;49.240;8.548;2022-08-03T06:19:29;100462.53;;;30.93
19568;BMP280;9930;49.240;8.548;2022-08-03T06:21:57;100475.59;;;31.15
19568;BMP280;9930;49.240;8.548;2022-08-03T06:24:25;100464.22;;;31.15
19568;BMP280;9930;49.240;8.548;2022-08-03T06:26:51;100463.28;;;31.16
19568;BMP280;9930;49.240;8.548;2022-08-03T06:29:19;100469.50;;;31.15
19568;BMP280;9930;49.240;8.548;2022-08-03T06:31:47;100460.19;;;31.06
19568;BMP280;9930;49.240;8.548;2022-08-03T06:34:13;100448.94;;;31.03
19568;BMP280;9930;49.240;8.548;2022-08-03T06:36:45;100462.75;;;31.08
19568;BMP280;9930;49.240;8.548;2022-08-03T06:39:15;100461.91;;;31.07
19568;BMP280;9930;49.240;8.548;2022-08-03T06:41:46;100459.06;;;31.12
19568;BMP280;9930;49.240;8.548;2022-08-03T06:44:14;100458.72;;;31.19
19568;BMP280;9930;49.240;8.548;2022-08-03T06:46:43;100466.63;;;31.19
19568;BMP280;9930;49.240;8.548;2022-08-03T06:49:12;100457.34;;;31.11
19568;BMP280;9930;49.240;8.548;2022-08-03T06:51:40;100450.50;;;31.07
19568;BMP280;9930;49.240;8.548;2022-08-03T06:54:08;100451.50;;;31.04
19568;BMP280;9930;49.240;8.548;2022-08-03T06:56:37;100462.97;;;31.03
19568;BMP280;9930;49.240;8.548;2022-08-03T06:59:04;100462.13;;;31.03
19568;BMP280;9930;49.240;8.548;2022-08-03T07:01:36;100468.25;;;31.03
19568;BMP280;9930;49.240;8.548;2022-08-03T07:04:02;100464.53;;;31.07
19568;BMP280;9930;49.240;8.548;2022-08-03T07:06:28;100460.19;;;31.06
19568;BMP280;9930;49.240;8.548;2022-08-03T07:08:54;100467.72;;;31.15
19568;BMP280;9930;49.240;8.548;2022-08-03T07:11:21;100466.53;;;31.21
19568;BMP280;9930;49.240;8.548;2022-08-03T07:13:46;100456.63;;;31.26
19568;BMP280;9930;49.240;8.548;2022-08-03T07:16:12;100454.47;;;31.34
19568;BMP280;9930;49.240;8.548;2022-08-03T07:18:38;100460.16;;;31.44
19568;BMP280;9930;49.240;8.548;2022-08-03T07:21:04;100443.91;;;31.53
19568;BMP280;9930;49.240;8.548;2022-08-03T07:23:30;100456.00;;;31.76
19568;BMP280;9930;49.240;8.548;2022-08-03T07:25:55;100458.88;;;31.88
19568;BMP280;9930;49.240;8.548;2022-08-03T07:28:21;100457.16;;;32.05
19568;BMP280;9930;49.240;8.548;2022-08-03T07:30:47;100463.38;;;32.21
19568;BMP280;9930;49.240;8.548;2022-08-03T07:33:15;100460.13;;;32.33
19568;BMP280;9930;49.240;8.548;2022-08-03T07:35:43;100459.41;;;32.47
19568;BMP280;9930;49.240;8.548;2022-08-03T07:38:12;100466.69;;;32.59
19568;BMP280;9930;49.240;8.548;2022-08-03T07:40:38;100466.13;;;32.70
19568;BMP280;9930;49.240;8.548;2022-08-03T07:43:09;100461.16;;;32.81
19568;BMP280;9930;49.240;8.548;2022-08-03T07:45:41;100466.09;;;32.87
19568;BMP280;9930;49.240;8.548;2022-08-03T07:48:12;100458.19;;;32.87
19568;BMP280;9930;49.240;8.548;2022-08-03T07:50:39;100456.22;;;32.91
19568;BMP280;9930;49.240;8.548;2022-08-03T07:53:07;100460.06;;;33.01
19568;BMP280;9930;49.240;8.548;2022-08-03T07:55:34;100447.63;;;33.03
19568;BMP280;9930;49.240;8.548;2022-08-03T07:58:07;100459.31;;;33.14
19568;BMP280;9930;49.240;8.548;2022-08-03T08:00:35;100453.94;;;33.16
19568;BMP280;9930;49.240;8.548;2022-08-03T08:03:04;100440.63;;;33.17
19568;BMP280;9930;49.240;8.548;2022-08-03T08:05:33;100442.84;;;33.25
19568;BMP280;9930;49.240;8.548;2022-08-03T08:08:02;100448.69;;;33.32
19568;BMP280;9930;49.240;8.548;2022-08-03T08:10:32;100449.78;;;33.43
19568;BMP280;9930;49.240;8.548;2022-08-03T08:13:01;100444.13;;;33.50
19568;BMP280;9930;49.240;8.548;2022-08-03T08:15:29;100444.47;;;33.59
19568;BMP280;9930;49.240;8.548;2022-08-03T08:17:59;100450.16;;;33.67
19568;BMP280;9930;49.240;8.548;2022-08-03T08:20:32;100443.84;;;33.70
19568;BMP280;9930;49.240;8.548;2022-08-03T08:23:04;100437.78;;;33.68
19568;BMP280;9930;49.240;8.548;2022-08-03T08:25:33;100436.75;;;33.70
19568;BMP280;9930;49.240;8.548;2022-08-03T08:28:02;100442.81;;;33.72
19568;BMP280;9930;49.240;8.548;2022-08-03T08:30:31;100439.59;;;33.67
19568;BMP280;9930;49.240;8.548;2022-08-03T08:32:57;100436.50;;;33.75
19568;BMP280;9930;49.240;8.548;2022-08-03T08:35:23;100427.53;;;33.77
19568;BMP280;9930;49.240;8.548;2022-08-03T08:37:51;100426.44;;;33.82
19568;BMP280;9930;49.240;8.548;2022-08-03T08:40:21;100423.69;;;33.83
19568;BMP280;9930;49.240;8.548;2022-08-03T08:42:47;100436.75;;;33.86
19568;BMP280;9930;49.240;8.548;2022-08-03T08:45:18;100439.66;;;33.82
19568;BMP280;9930;49.240;8.548;2022-08-03T08:47:47;100436.16;;;33.81
19568;BMP280;9930;49.240;8.548;2022-08-03T08:50:17;100426.00;;;33.73
19568;BMP280;9930;49.240;8.548;2022-08-03T08:52:47;100424.13;;;33.75
19568;BMP280;9930;49.240;8.548;2022-08-03T08:55:24;100426.75;;;33.75
19568;BMP280;9930;49.240;8.548;2022-08-03T08:57:58;100422.84;;;33.67
19568;BMP280;9930;49.240;8.548;2022-08-03T09:00:27;100423.72;;;33.67
19568;BMP280;9930;49.240;8.548;2022-08-03T09:02:56;100420.22;;;33.67
19568;BMP280;9930;49.240;8.548;2022-08-03T09:05:24;100426.00;;;33.73
19568;BMP280;9930;49.240;8.548;2022-08-03T09:07:54;100414.56;;;33.73
19568;BMP280;9930;49.240;8.548;2022-08-03T09:10:22;100423.59;;;33.85
19568;BMP280;9930;49.240;8.548;2022-08-03T09:12:50;100425.91;;;33.91
19568;BMP280;9930;49.240;8.548;2022-08-03T09:15:29;100422.88;;;33.97
19568;BMP280;9930;49.240;8.548;2022-08-03T09:18:01;100414.47;;;34.04
19568;BMP280;9930;49.240;8.548;2022-08-03T09:20:33;100428.78;;;34.16
19568;BMP280;9930;49.240;8.548;2022-08-03T09:23:06;100406.75;;;34.16
19568;BMP280;9930;49.240;8.548;2022-08-03T09:25:42;100419.94;;;34.31
19568;BMP280;9930;49.240;8.548;2022-08-03T09:28:17;100421.16;;;34.40
19568;BMP280;9930;49.240;8.548;2022-08-03T09:30:58;100417.38;;;34.44
19568;BMP280;9930;49.240;8.548;2022-08-03T09:33:24;100408.03;;;34.53
19568;BMP280;9930;49.240;8.548;2022-08-03T09:35:50;100407.66;;;34.59
19568;BMP280;9930;49.240;8.548;2022-08-03T09:38:17;100402.72;;;34.67
19568;BMP280;9930;49.240;8.548;2022-08-03T09:40:45;100398.06;;;34.70
19568;BMP280;9930;49.240;8.548;2022-08-03T09:43:11;100400.53;;;34.73
19568;BMP280;9930;49.240;8.548;2022-08-03T09:45:38;100396.75;;;34.78
19568;BMP280;9930;49.240;8.548;2022-08-03T09:48:25;100398.19;;;34.83
19568;BMP280;9930;49.240;8.548;2022-08-03T09:50:59;100404.91;;;34.89
19568;BMP280;9930;49.240;8.548;2022-08-03T09:53:25;100395.34;;;34.86
19568;BMP280;9930;49.240;8.548;2022-08-03T09:58:25;100392.84;;;34.97
19568;BMP280;9930;49.240;8.548;2022-08-03T10:01:03;100379.59;;;34.97
19568;BMP280;9930;49.240;8.548;2022-08-03T10:03:34;100395.56;;;35.10
19568;BMP280;9930;49.240;8.548;2022-08-03T10:06:18;100387.22;;;35.16
19568;BMP280;9930;49.240;8.548;2022-08-03T10:09:15;100385.09;;;35.21
19568;BMP280;9930;49.240;8.548;2022-08-03T10:11:43;100374.50;;;35.21
19568;BMP280;9930;49.240;8.548;2022-08-03T10:14:12;100379.88;;;35.34
19568;BMP280;9930;49.240;8.548;2022-08-03T10:16:49;100369.81;;;35.39
19568;BMP280;9930;49.240;8.548;2022-08-03T10:19:16;100359.09;;;35.41
19568;BMP280;9930;49.240;8.548;2022-08-03T10:21:49;100359.34;;;35.50
19568;BMP280;9930;49.240;8.548;2022-08-03T10:24:25;100361.16;;;35.62
19568;BMP280;9930;49.240;8.548;2022-08-03T10:27:02;100364.25;;;35.69
19568;BMP280;9930;49.240;8.548;2022-08-03T10:29:36;100363.63;;;35.78
19568;BMP280;9930;49.240;8.548;2022-08-03T10:32:09;100361.97;;;35.90
19568;BMP280;9930;49.240;8.548;2022-08-03T10:34:41;100355.50;;;35.94
19568;BMP280;9930;49.240;8.548;2022-08-03T10:37:10;100356.66;;;36.03
19568;BMP280;9930;49.240;8.548;2022-08-03T10:39:38;100350.19;;;36.07
19568;BMP280;9930;49.240;8.548;2022-08-03T10:42:25;100350.28;;;36.18
19568;BMP280;9930;49.240;8.548;2022-08-03T10:47:31;100341.78;;;36.25
19568;BMP280;9930;49.240;8.548;2022-08-03T10:49:58;100338.84;;;36.30
19568;BMP280;9930;49.240;8.548;2022-08-03T10:52:29;100334.03;;;36.35
19568;BMP280;9930;49.240;8.548;2022-08-03T10:54:55;100327.88;;;36.35
19568;BMP280;9930;49.240;8.548;2022-08-03T10:57:56;100336.47;;;36.38
19568;BMP280;9930;49.240;8.548;2022-08-03T11:00:25;100341.00;;;36.49
19568;BMP280;9930;49.240;8.548;2022-08-03T11:03:17;100333.44;;;36.55
19568;BMP280;9930;49.240;8.548;2022-08-03T11:05:47;100326.59;;;36.64
19568;BMP280;9930;49.240;8.548;2022-08-03T11:08:27;100321.06;;;36.67
19568;BMP280;9930;49.240;8.548;2022-08-03T11:14:20;100313.19;;;36.78
19568;BMP280;9930;49.240;8.548;2022-08-03T11:17:06;100321.22;;;36.89
19568;BMP280;9930;49.240;8.548;2022-08-03T11:19:51;100314.84;;;36.92
19568;BMP280;9930;49.240;8.548;2022-08-03T11:22:19;100303.00;;;36.96
19568;BMP280;9930;49.240;8.548;2022-08-03T11:27:23;100309.09;;;37.09
19568;BMP280;9930;49.240;8.548;2022-08-03T11:30:21;100316.84;;;37.12
19568;BMP280;9930;49.240;8.548;2022-08-03T11:32:53;100306.09;;;37.14
19568;BMP280;9930;49.240;8.548;2022-08-03T11:35:29;100308.41;;;37.18
19568;BMP280;9930;49.240;8.548;2022-08-03T11:40:52;100306.78;;;37.28
19568;BMP280;9930;49.240;8.548;2022-08-03T11:46:08;100305.13;;;37.39
19568;BMP280;9930;49.240;8.548;2022-08-03T11:49:02;100296.06;;;37.41
19568;BMP280;9930;49.240;8.548;2022-08-03T11:51:29;100300.19;;;37.45
19568;BMP280;9930;49.240;8.548;2022-08-03T11:54:03;100292.09;;;37.47
19568;BMP280;9930;49.240;8.548;2022-08-03T11:56:48;100287.16;;;37.53
19568;BMP280;9930;49.240;8.548;2022-08-03T11:59:22;100286.69;;;37.59
19568;BMP280;9930;49.240;8.548;2022-08-03T12:02:06;100280.25;;;37.62
19568;BMP280;9930;49.240;8.548;2022-08-03T12:07:21;100280.81;;;37.78
19568;BMP280;9930;49.240;8.548;2022-08-03T12:10:07;100274.50;;;37.79
19568;BMP280;9930;49.240;8.548;2022-08-03T12:12:33;100281.03;;;37.86
19568;BMP280;9930;49.240;8.548;2022-08-03T12:15:01;100279.00;;;37.90
19568;BMP280;9930;49.240;8.548;2022-08-03T12:17:39;100264.94;;;37.88
19568;BMP280;9930;49.240;8.548;2022-08-03T12:20:09;100266.88;;;37.97
19568;BMP280;9930;49.240;8.548;2022-08-03T12:22:47;100270.03;;;38.02
19568;BMP280;9930;49.240;8.548;2022-08-03T12:25:23;100264.47;;;38.05
19568;BMP280;9930;49.240;8.548;2022-08-03T12:27:51;100261.19;;;38.13
19568;BMP280;9930;49.240;8.548;2022-08-03T12:30:22;100253.31;;;38.11
19568;BMP280;9930;49.240;8.548;2022-08-03T12:32:48;100246.06;;;38.13
19568;BMP280;9930;49.240;8.548;2022-08-03T12:35:25;100253.72;;;38.18
19568;BMP280;9930;49.240;8.548;2022-08-03T12:37:53;100244.88;;;38.17
19568;BMP280;9930;49.240;8.548;2022-08-03T12:40:26;100252.50;;;38.22
19568;BMP280;9930;49.240;8.548;2022-08-03T12:42:54;100250.69;;;38.22
19568;BMP280;9930;49.240;8.548;2022-08-03T12:45:26;100249.47;;;38.27
19568;BMP280;9930;49.240;8.548;2022-08-03T12:47:58;100251.50;;;38.34
19568;BMP280;9930;49.240;8.548;2022-08-03T12:50:37;100255.13;;;38.33
19568;BMP280;9930;49.240;8.548;2022-08-03T12:53:07;100243.41;;;38.24
19568;BMP280;9930;49.240;8.548;2022-08-03T12:55:33;100250.31;;;38.27
19568;BMP280;9930;49.240;8.548;2022-08-03T12:58:06;100258.91;;;38.31
19568;BMP280;9930;49.240;8.548;2022-08-03T13:00:38;100250.78;;;38.32
19568;BMP280;9930;49.240;8.548;2022-08-03T13:03:06;100246.53;;;38.30
19568;BMP280;9930;49.240;8.548;2022-08-03T13:05:44;100233.09;;;38.31
19568;BMP280;9930;49.240;8.548;2022-08-03T13:08:25;100243.63;;;38.33
19568;BMP280;9930;49.240;8.548;2022-08-03T13:10:51;100241.69;;;38.35
19568;BMP280;9930;49.240;8.548;2022-08-03T13:13:17;100233.94;;;38.32
19568;BMP280;9930;49.240;8.548;2022-08-03T13:15:44;100229.47;;;38.32
19568;BMP280;9930;49.240;8.548;2022-08-03T13:18:12;100242.53;;;38.35
19568;BMP280;9930;49.240;8.548;2022-08-03T13:20:38;100229.59;;;38.31
19568;BMP280;9930;49.240;8.548;2022-08-03T13:23:06;100230.44;;;38.31
19568;BMP280;9930;49.240;8.548;2022-08-03T13:25:32;100219.66;;;38.33
19568;BMP280;9930;49.240;8.548;2022-08-03T13:27:57;100224.00;;;38.34
19568;BMP280;9930;49.240;8.548;2022-08-03T13:30:23;100226.28;;;38.38
19568;BMP280;9930;49.240;8.548;2022-08-03T13:32:52;100217.59;;;38.36
19568;BMP280;9930;49.240;8.548;2022-08-03T13:35:17;100230.06;;;38.36
19568;BMP280;9930;49.240;8.548;2022-08-03T13:37:43;100224.47;;;38.39
19568;BMP280;9930;49.240;8.548;2022-08-03T13:40:11;100220.13;;;38.38
19568;BMP280;9930;49.240;8.548;2022-08-03T13:42:37;100217.72;;;38.35
19568;BMP280;9930;49.240;8.548;2022-08-03T13:45:04;100220.25;;;38.36
19568;BMP280;9930;49.240;8.548;2022-08-03T13:47:33;100222.19;;;38.34
19568;BMP280;9930;49.240;8.548;2022-08-03T13:49:59;100224.97;;;38.33
19568;BMP280;9930;49.240;8.548;2022-08-03T13:52:34;100211.19;;;38.28
19568;BMP280;9930;49.240;8.548;2022-08-03T13:55:02;100204.28;;;38.25
19568;BMP280;9930;49.240;8.548;2022-08-03T13:57:31;100208.16;;;38.32
19568;BMP280;9930;49.240;8.548;2022-08-03T13:59:57;100196.91;;;38.29
19568;BMP280;9930;49.240;8.548;2022-08-03T14:02:22;100201.72;;;38.35
19568;BMP280;9930;49.240;8.548;2022-08-03T14:04:51;100192.28;;;38.31
19568;BMP280;9930;49.240;8.548;2022-08-03T14:07:16;100191.44;;;38.30
19568;BMP280;9930;49.240;8.548;2022-08-03T14:09:45;100197.38;;;38.34
19568;BMP280;9930;49.240;8.548;2022-08-03T14:12:14;100193.97;;;38.32
19568;BMP280;9930;49.240;8.548;2022-08-03T14:14:44;100190.22;;;38.34
19568;BMP280;9930;49.240;8.548;2022-08-03T14:17:13;100190.34;;;38.33
19568;BMP280;9930;49.240;8.548;2022-08-03T14:19:46;100195.66;;;38.33
19568;BMP280;9930;49.240;8.548;2022-08-03T14:22:12;100187.09;;;38.29
19568;BMP280;9930;49.240;8.548;2022-08-03T14:24:42;100181.03;;;38.27
19568;BMP280;9930;49.240;8.548;2022-08-03T14:27:08;100185.13;;;38.31
19568;BMP280;9930;49.240;8.548;2022-08-03T14:29:33;100173.28;;;38.24
19568;BMP280;9930;49.240;8.548;2022-08-03T14:32:02;100187.81;;;38.31
19568;BMP280;9930;49.240;8.548;2022-08-03T14:34:32;100177.88;;;38.33
19568;BMP280;9930;49.240;8.548;2022-08-03T14:37:02;100180.53;;;38.33
19568;BMP280;9930;49.240;8.548;2022-08-03T14:39:28;100166.03;;;38.26
19568;BMP280;9930;49.240;8.548;2022-08-03T14:41:54;100181.75;;;38.29
19568;BMP280;9930;49.240;8.548;2022-08-03T14:44:19;100178.38;;;38.27
19568;BMP280;9930;49.240;8.548;2022-08-03T14:46:45;100176.56;;;38.28
19568;BMP280;9930;49.240;8.548;2022-08-03T14:49:11;100181.88;;;38.28
19568;BMP280;9930;49.240;8.548;2022-08-03T14:51:37;100180.78;;;38.30
19568;BMP280;9930;49.240;8.548;2022-08-03T14:54:03;100166.75;;;38.28
19568;BMP280;9930;49.240;8.548;2022-08-03T14:56:28;100174.34;;;38.33
19568;BMP280;9930;49.240;8.548;2022-08-03T14:58:54;100174.22;;;38.34